createdAt,value
2022-11-12T00:02:25.738Z,40.85
2022-11-12T00:07:32.776Z,40.70
2022-11-12T00:12:39.999Z,40.22
2022-11-12T00:17:47.413Z,39.95
2022-11-12T00:22:54.481Z,40.28
2022-11-12T00:28:01.643Z,40.22
2022-11-12T00:33:08.959Z,39.93
2022-11-12T00:38:16.016Z,39.86
2022-11-12T00:43:23.493Z,40.18
2022-11-12T00:48:30.875Z,39.71
2022-11-12T00:53:37.992Z,39.63
2022-11-12T00:58:45.224Z,39.60
2022-11-12T01:03:52.642Z,39.72
2022-11-12T01:08:59.683Z,39.73
2022-11-12T01:14:06.881Z,39.79
2022-11-12T01:19:14.179Z,39.86
2022-11-12T01:24:21.208Z,39.97
2022-11-12T01:29:28.441Z,40.07
2022-11-12T01:34:35.810Z,40.19
2022-11-12T01:39:42.887Z,40.33
2022-11-12T01:44:50.117Z,40.48
2022-11-12T01:49:59.253Z,40.60
2022-11-12T01:55:06.341Z,40.69
2022-11-12T02:00:13.654Z,40.79
2022-11-12T02:05:21.008Z,40.97
2022-11-12T02:10:28.209Z,41.07
2022-11-12T02:15:38.331Z,41.14
2022-11-12T02:20:45.708Z,41.34
2022-11-12T02:25:52.763Z,41.37
2022-11-12T02:31:00.016Z,41.50
2022-11-12T02:36:07.285Z,41.54
2022-11-12T02:41:15.416Z,41.63
2022-11-12T02:46:24.215Z,41.70
2022-11-12T02:51:31.569Z,41.79
2022-11-12T02:56:38.672Z,41.85
2022-11-12T03:01:45.877Z,41.85
2022-11-12T03:06:53.231Z,41.95
2022-11-12T03:12:00.501Z,41.99
2022-11-12T03:17:07.789Z,42.02
2022-11-12T03:22:15.131Z,42.09
2022-11-12T03:27:22.228Z,42.14
2022-11-12T03:32:29.423Z,42.22
2022-11-12T03:37:36.811Z,42.28
2022-11-12T03:42:43.937Z,42.28
2022-11-12T03:47:51.253Z,42.30
2022-11-12T03:52:58.672Z,42.26
2022-11-12T03:58:05.747Z,42.24
2022-11-12T04:03:13.793Z,42.29
2022-11-12T04:08:21.207Z,42.24
2022-11-12T04:13:28.295Z,42.24
2022-11-12T04:18:35.619Z,42.34
2022-11-12T04:23:42.952Z,42.34
2022-11-12T04:28:50.150Z,42.40
2022-11-12T04:33:57.362Z,42.40
2022-11-12T04:39:04.688Z,42.49
2022-11-12T04:44:11.800Z,42.50
2022-11-12T04:49:19.029Z,42.53
2022-11-12T04:54:29.422Z,42.47
2022-11-12T04:59:36.524Z,42.53
2022-11-12T05:04:43.741Z,42.56
2022-11-12T05:09:51.128Z,42.56
2022-11-12T05:14:58.298Z,42.64
2022-11-12T05:20:05.561Z,42.66
2022-11-12T05:25:12.976Z,42.59
2022-11-12T05:30:20.081Z,42.58
2022-11-12T05:35:27.359Z,42.53
2022-11-12T05:40:34.777Z,42.49
2022-11-12T05:45:43.926Z,42.49
2022-11-12T05:51:11.796Z,42.53
2022-11-12T05:55:58.448Z,42.58
2022-11-12T06:01:05.504Z,42.61
2022-11-12T06:06:12.720Z,42.67
2022-11-12T06:11:20.025Z,42.70
2022-11-12T06:16:27.123Z,42.73
2022-11-12T06:21:34.381Z,42.76
2022-11-12T06:26:41.752Z,42.77
2022-11-12T06:31:48.937Z,42.76
2022-11-12T06:36:56.170Z,42.79
2022-11-12T06:42:03.516Z,42.83
2022-11-12T06:47:10.637Z,42.86
2022-11-12T06:52:17.859Z,42.83
2022-11-12T06:57:25.180Z,42.78
2022-11-12T07:02:32.310Z,42.70
2022-11-12T07:07:39.538Z,42.75
2022-11-12T07:12:53.157Z,42.76
2022-11-12T07:17:55.062Z,42.73
2022-11-12T07:23:02.326Z,42.69
2022-11-12T07:28:10.269Z,42.71
2022-11-12T07:33:17.449Z,42.70
2022-11-12T07:38:25.006Z,42.75
2022-11-12T07:43:32.048Z,42.74
2022-11-12T07:48:39.174Z,42.80
2022-11-12T07:53:46.421Z,42.83
2022-11-12T07:58:53.786Z,42.86
2022-11-12T08:04:00.872Z,42.89
2022-11-12T08:09:08.077Z,42.93
2022-11-12T08:14:15.464Z,42.91
2022-11-12T08:19:22.471Z,42.92
2022-11-12T08:24:29.727Z,43.14
2022-11-12T08:29:38.839Z,43.16
2022-11-12T08:34:45.941Z,42.91
2022-11-12T08:39:53.125Z,42.69
2022-11-12T08:45:02.559Z,42.44
2022-11-12T08:50:11.574Z,42.40
2022-11-12T08:55:18.803Z,42.16
2022-11-12T09:00:26.215Z,42.02
2022-11-12T09:05:33.330Z,41.86
2022-11-12T09:10:40.573Z,41.76
2022-11-12T09:15:47.943Z,41.61
2022-11-12T09:20:55.046Z,41.46
2022-11-12T09:26:02.296Z,41.42
2022-11-12T09:31:09.614Z,41.91
2022-11-12T09:36:16.728Z,42.45
2022-11-12T09:41:23.967Z,42.49
2022-11-12T09:46:31.307Z,42.46
2022-11-12T09:51:38.417Z,42.18
2022-11-12T09:56:45.635Z,42.21
2022-11-12T10:01:53.046Z,42.19
2022-11-12T10:07:00.112Z,41.76
2022-11-12T10:12:09.308Z,41.44
2022-11-12T10:17:18.500Z,41.40
2022-11-12T10:22:25.684Z,41.15
2022-11-12T10:27:32.905Z,41.07
2022-11-12T10:32:40.259Z,41.40
2022-11-12T10:37:47.365Z,41.14
2022-11-12T10:42:54.645Z,41.40
2022-11-12T10:48:01.989Z,41.51
2022-11-12T10:53:12.965Z,41.61
2022-11-12T10:58:20.139Z,41.50
2022-11-12T11:03:27.486Z,41.38
2022-11-12T11:08:36.575Z,41.18
2022-11-12T11:13:41.830Z,41.01
2022-11-12T11:18:52.231Z,40.95
2022-11-12T11:23:59.383Z,40.86
2022-11-12T11:29:06.599Z,40.78
2022-11-12T11:34:13.875Z,40.87
2022-11-12T11:39:20.986Z,40.76
2022-11-12T11:44:28.220Z,40.83
2022-11-12T11:49:41.445Z,40.94
2022-11-12T11:54:49.934Z,40.76
2022-11-12T11:59:57.179Z,40.71
2022-11-12T12:05:05.019Z,40.92
2022-11-12T12:10:12.095Z,40.95
2022-11-12T12:15:19.785Z,40.83
2022-11-12T12:20:28.915Z,40.73
2022-11-12T12:25:36.052Z,40.71
2022-11-12T12:30:43.286Z,40.50
2022-11-12T12:35:50.612Z,40.51
2022-11-12T12:40:57.770Z,40.62
2022-11-12T12:46:05.016Z,40.55
2022-11-12T12:51:12.442Z,40.44
2022-11-12T12:56:19.509Z,40.42
2022-11-12T13:01:26.726Z,40.57
2022-11-12T13:06:34.116Z,40.42
2022-11-12T13:11:42.032Z,40.44
2022-11-12T13:16:49.266Z,40.85
2022-11-12T13:21:56.783Z,40.60
2022-11-12T13:27:03.868Z,40.46
2022-11-12T13:32:11.044Z,40.47
2022-11-12T13:37:18.383Z,40.53
2022-11-12T13:42:25.424Z,40.60
2022-11-12T13:47:32.686Z,40.42
2022-11-12T13:52:40.000Z,40.44
2022-11-12T13:57:47.066Z,40.38
2022-11-12T14:02:54.254Z,41.35
2022-11-12T14:08:01.617Z,41.25
2022-11-12T14:13:08.752Z,41.06
2022-11-12T14:18:16.837Z,41.24
2022-11-12T14:23:25.331Z,41.31
2022-11-12T14:28:31.303Z,41.20
2022-11-12T14:33:38.595Z,41.22
2022-11-12T14:38:45.954Z,41.21
2022-11-12T14:44:11.013Z,41.24
2022-11-12T14:49:01.838Z,42.28
2022-11-12T14:54:13.211Z,42.47
2022-11-12T14:59:20.406Z,42.50
2022-11-12T15:04:27.571Z,42.53
2022-11-12T15:09:35.060Z,42.74
2022-11-12T15:14:42.160Z,42.66
2022-11-12T15:19:52.919Z,42.47
2022-11-12T15:25:02.226Z,42.45
2022-11-12T15:30:09.339Z,42.34
2022-11-12T15:35:16.615Z,42.34
2022-11-12T15:40:24.053Z,42.31
2022-11-12T15:45:31.239Z,42.15
2022-11-12T15:50:38.588Z,42.18
2022-11-12T15:55:45.976Z,40.95
2022-11-12T16:00:53.494Z,39.89
2022-11-12T16:06:05.679Z,39.64
2022-11-12T16:11:08.099Z,39.57
2022-11-12T16:16:15.881Z,39.29
2022-11-12T16:21:24.871Z,39.08
2022-11-12T16:26:32.302Z,38.93
2022-11-12T16:31:40.238Z,38.76
2022-11-12T16:36:47.402Z,39.43
2022-11-12T16:41:54.710Z,39.45
2022-11-12T16:47:08.343Z,39.98
2022-11-12T16:52:15.580Z,39.61
2022-11-12T16:57:22.935Z,39.86
2022-11-12T17:02:30.144Z,39.78
2022-11-12T17:07:37.410Z,40.31
2022-11-12T17:12:44.763Z,39.63
2022-11-12T17:17:51.965Z,40.02
2022-11-12T17:22:59.433Z,39.89
2022-11-12T17:28:07.178Z,39.92
2022-11-12T17:33:14.497Z,39.87
2022-11-12T17:38:21.775Z,39.59
2022-11-12T17:43:29.524Z,39.45
2022-11-12T17:48:36.307Z,39.68
2022-11-12T17:53:44.505Z,39.83
2022-11-12T17:58:52.102Z,39.83
2022-11-12T18:03:59.536Z,39.74
2022-11-12T18:09:08.173Z,39.40
2022-11-12T18:14:15.570Z,39.69
2022-11-12T18:19:22.733Z,39.51
2022-11-12T18:24:30.195Z,40.00
2022-11-12T18:29:37.923Z,40.13
2022-11-12T18:34:45.392Z,39.98
2022-11-12T18:39:53.346Z,39.68
2022-11-12T18:45:00.872Z,39.90
2022-11-12T18:50:09.046Z,39.88
2022-11-12T18:55:15.341Z,39.91
2022-11-12T19:00:22.718Z,39.79
2022-11-12T19:05:30.185Z,40.04
2022-11-12T19:10:37.594Z,39.84
2022-11-12T19:15:44.972Z,39.37
2022-11-12T19:20:52.135Z,38.93
2022-11-12T19:25:59.621Z,39.27
2022-11-12T19:31:07.289Z,39.67
2022-11-12T19:36:14.551Z,39.61
2022-11-12T19:41:21.802Z,39.54
2022-11-12T19:46:29.268Z,39.47
2022-11-12T19:51:36.379Z,39.26
2022-11-12T19:56:43.687Z,39.23
2022-11-12T20:01:51.346Z,39.02
2022-11-12T20:06:58.948Z,38.92
2022-11-12T20:12:06.219Z,39.24
2022-11-12T20:17:13.530Z,39.01
2022-11-12T20:22:20.923Z,39.01
2022-11-12T20:27:28.267Z,39.16
2022-11-12T20:32:35.812Z,38.77
2022-11-12T20:37:47.558Z,39.01
2022-11-12T20:42:54.892Z,39.31
2022-11-12T20:48:02.592Z,39.41
2022-11-12T20:53:09.904Z,39.41
2022-11-12T20:58:17.437Z,39.86
2022-11-12T21:03:24.825Z,39.46
2022-11-12T21:08:32.216Z,39.41
2022-11-12T21:13:39.658Z,39.82
2022-11-12T21:18:47.075Z,39.79
2022-11-12T21:23:56.753Z,40.02
2022-11-12T21:29:02.791Z,39.66
2022-11-12T21:34:10.108Z,39.94
2022-11-12T21:39:17.201Z,39.22
2022-11-12T21:44:24.395Z,39.28
2022-11-12T21:49:32.841Z,39.25
2022-11-12T21:54:39.996Z,39.26
2022-11-12T21:59:47.164Z,39.47
2022-11-12T22:04:54.530Z,39.09
2022-11-12T22:10:01.659Z,39.06
2022-11-12T22:15:08.880Z,38.99
2022-11-12T22:20:16.991Z,38.93
2022-11-12T22:25:24.035Z,38.74
2022-11-12T22:30:31.225Z,39.06
2022-11-12T22:35:38.601Z,38.73
2022-11-12T22:40:45.707Z,38.70
2022-11-12T22:45:52.913Z,38.59
2022-11-12T22:51:00.348Z,38.39
2022-11-12T22:56:07.323Z,38.79
2022-11-12T23:01:14.596Z,38.63
2022-11-12T23:06:21.886Z,38.70
2022-11-12T23:11:29.507Z,38.59
2022-11-12T23:16:37.994Z,38.62
2022-11-12T23:21:45.320Z,38.55
2022-11-12T23:26:52.404Z,39.12
2022-11-12T23:32:00.225Z,38.86
2022-11-12T23:37:07.622Z,38.98
2022-11-12T23:42:14.704Z,38.91
2022-11-12T23:47:21.942Z,38.89
2022-11-12T23:52:29.322Z,38.76
2022-11-12T23:57:36.367Z,38.38
